MyTimes logo

TIMES

Webb Imagery

11/02/2012
Channel Challenge
550m Swim / 2.0km Run - Local Residents

(Click on competitor name to view personalised results)

Name
Race #
Category
Time
(h:mm:ss)
Avg Speed
km/hr
OAll
Place
Cat
Place
GUILLE Tim#1Senior Male0:13:17"11.5 " 11
PLANT Luke#202Senior Male0:13:33"11.3 " 22
BUTT Chloe#374Senior Female0:13:52"11.0 " 31
FLEISNER Rob#681Male 50+0:13:57"11.0 " 41
BILL Greg#678Male 40-490:14:04"10.9 " 51
MANTEIT Michael#683Junior Male0:14:08"10.8 " 61
GIN Elliot#679Junior Male0:14:11"10.8 " 72
DALLINGER Andrew#110Senior Male0:14:15"10.7 " 83
TILLEY Justin#171Senior Male0:14:35"10.5 " 94
JUDD Alex#122Senior Male0:14:36"10.5 " 105
HARRISON Hamish#102Senior Male0:14:47"10.3 " 116
VAN AGTMAAL Beau#717Junior Male0:14:48"10.3 " 123
BOND Marcus#69Senior Male0:14:53"10.3 " 137
HOLUB Taylor#169Senior Male0:15:01"10.2 " 148
KILDAY Ben#196Senior Male0:15:08"10.1 " 159
CORBETT Jim#697Male 40-490:15:19"10.0 " 162
SORATI Ty#118Senior Male0:15:25"9.9 " 1710
YUSKO Bill#734Male 50+0:15:27"9.9 " 182
LEWIS Dayne#38Senior Male0:15:33"9.8 " 1911
HENDRICKS Vaughn#105Senior Male0:15:36"9.8 " 2012
HARRIS Raeleigh#308Female 40-490:15:39"9.8 " 211
WEIR Jake#33Senior Male0:15:47"9.7 " 2213
WILKINS Shaun#162Senior Male0:15:51"9.7 " 2314
TURNER Peter#708Male 50+0:15:53"9.6 " 243
TURNER Georgia#422Junior Female0:15:57"9.6 " 251
CHISHOLM Andy#636Male 40-490:16:03"9.5 " 263
HUGHES Hilary#381Senior Female0:16:10"9.5 " 272
ONLEY Thomas#126Senior Male0:16:17"9.4 " 2815
HETERSBRUEG Andre#127Senior Male0:16:21"9.4 " 2916
MAHON Debbi#400Senior Female0:16:25"9.3 " 303
JUDD Gary#693Male 50+0:16:31"9.3 " 314
MATTHEWS Jack#119Senior Male0:16:33"9.2 " 3217
PRICE Brodie#42Senior Male0:16:40"9.2 " 3318
CROWE Susie#441Senior Female0:16:40"9.2 " 344
EDWARDS Molly#398Junior Female0:16:49"9.1 " 352
DALLINGER Chris#156Senior Male0:16:54"9.1 " 3619
MARSHALL Luke#128Senior Male0:16:56"9.0 " 3720
MORRIS Rachael#349Senior Female0:17:01"9.0 " 385
SULLIVAN Matt#602Junior Male0:17:03"9.0 " 394
HARRIS Michelle#382Senior Female0:17:04"9.0 " 406
HALE Tyler#200Senior Male0:17:08"8.9 " 4121
CUNNINGHAM Emma#408Senior Female0:17:13"8.9 " 427
ROBERTSON Lauren#342Junior Female0:17:15"8.9 " 433
BOURKE Lucy#440Senior Female0:17:16"8.9 " 448
WRIGHT Marcus#170Senior Male0:17:21"8.8 " 4522
PRICE Timothy#97Senior Male0:17:24"8.8 " 4623
TERLICH Chris#32Senior Male0:17:25"8.8 " 4724
DAVIE Jasmine#470Senior Female0:17:26"8.8 " 489
BELL Ashlea#468Junior Female0:17:36"8.7 " 494
FOOTE Nathan#728Junior Male0:17:36"8.7 " 505
CAMERON Jane#401Female 50+0:17:42"8.6 " 511
FISHER Kevin#698Male 40-490:17:42"8.6 " 524
HARBINSON Yvette#424Senior Female0:17:43"8.6 " 5310
STUBBLES Marcus#638Male 40-490:17:46"8.6 " 545
SALTON Marcus#34Senior Male0:17:50"8.6 " 5525
TAYLOR Shane#710Junior Male0:17:51"8.6 " 566
O'BRIEN Shannon#205Senior Male0:17:53"8.6 " 5726
RAWLINGSEN Darcy#173Senior Male0:17:54"8.5 " 5827
DAFF Geoff#691Male 50+0:17:58"8.5 " 595
LANGFORD Dean#700Male 50+0:18:06"8.5 " 606
MC HENRY Simon#111Senior Male0:18:08"8.4 " 6128
GRIFFITHS Kylie#414Female 40-490:18:08"8.4 " 622
BORN Christian#46Senior Male0:18:13"8.4 " 6329
MINTER Kris#6Senior Male0:18:26"8.3 " 6430
HERRINGTON Cameron#719Male 40-490:18:26"8.3 " 656
WEBB Brendan#48Senior Male0:18:28"8.3 " 6631
OLSEN Andrea#413Senior Female0:18:28"8.3 " 6711
BAGLEX Jarrod#160Senior Male0:18:31"8.3 " 6832
JOHNSTONE Chris#112Male 40-490:18:31"8.3 " 697
LANGFORD Imigen#412Junior Female0:18:36"8.2 " 705
ALDERSON Allan#774Male 50+0:18:36"8.2 " 717
BOURKE Steven#201Senior Male0:18:37"8.2 " 7233
TAYLOR Jack#711Junior Male0:18:43"8.2 " 737
LUCK Jarrod#625Male 40-490:18:47"8.1 " 748
PARKER Louis#7Senior Male0:18:49"8.1 " 7534
TOOHEY Zac#67Senior Male0:18:49"8.1 " 7635
CHISHOLM Paul#14Senior Male0:18:51"8.1 " 7736
HARRIS Simon#86Senior Male0:18:53"8.1 " 7837
LANDELLS Kara#466Senior Female0:18:54"8.1 " 7912
POTTER Jock#155Senior Male0:18:59"8.1 " 8038
FLEISNER Paul#672Male 50+0:19:00"8.1 " 818
HERBERT Duncan#720Male 40-490:19:01"8.0 " 829
O'DONOHUE Mark#685Male 40-490:19:04"8.0 " 8310
HEWTON Brad#151Senior Male0:19:05"8.0 " 8439
BAXTER Virginia#403Female 40-490:19:05"8.0 " 853
TUFF Stephen#182Senior Male0:19:08"8.0 " 8640
HUMBERT Cara#336Junior Female0:19:09"8.0 " 876
STAFFORD Rachel#311Female 40-490:19:13"8.0 " 884
COLE Nichlolas#772Male 40-490:19:14"8.0 " 8911
MC CABE Patrick#198Senior Male0:19:16"7.9 " 9041
SANCHEZ Julien#29Senior Male0:19:22"7.9 " 9142
HIBBLE Jenny#328Female 50+0:19:23"7.9 " 922
GUILMARTIN Jack#174Senior Male0:19:25"7.9 " 9343
HAWKINS Ricci#435Senior Female0:19:28"7.9 " 9413
MILLS Caroline#471Senior Female0:19:31"7.8 " 9514
VAUGHAN Clinton#211Senior Male0:19:35"7.8 " 9644
SUTHERLAND Michael#761Male 40-490:19:35"7.8 " 9712
BROWN Brett#615Male 40-490:19:36"7.8 " 9813
STEHPHENS Kristy#463Senior Female0:19:42"7.8 " 9915
O'DONOHUE Jacob#686Senior Female0:19:44"7.8 " 10016
BORN Daniel#47Senior Male0:19:45"7.7 " 10145
HEISLERS Chris#762Male 40-490:19:45"7.7 " 10214
MARTIN Jena#457Senior Female0:19:49"7.7 " 10317
BROWN Sean#735Male 40-490:19:53"7.7 " 10415
MOSELEY Tessa#351Senior Female0:19:54"7.7 " 10518
O'BRYAN Steven#161Senior Male0:19:55"7.7 " 10646
TYRRELL Sarah#420Senior Female0:19:56"7.7 " 10719
MILLETT Sue#315Female 40-490:20:05"7.6 " 1085
MANNING Simon#684Male 40-490:20:09"7.6 " 10916
STELZER Hermann#699Male 50+0:20:10"7.6 " 1109
CARR Bec#399Senior Female0:20:10"7.6 " 11120
WILLIAMS Sean#163Senior Male0:20:11"7.6 " 11247
MCFEE Jennifer#340Junior Female0:20:11"7.6 " 1137
MARSHALL Sarah#411Senior Female0:20:12"7.6 " 11421
MARRINER Cynthia#387Female 40-490:20:19"7.5 " 1156
MORRISON Kerry#472Female 50+0:20:19"7.5 " 1163
KENNEDY Lucas#129Senior Male0:20:24"7.5 " 11748
PIENS Jerome#618Male 40-490:20:24"7.5 " 11817
WIGISHOFF Nicolas#71Senior Male0:20:25"7.5 " 11949
HART Laura#461Senior Female0:20:29"7.5 " 12022
THOMPSON Grant#179Senior Male0:20:32"7.5 " 12150
VIRTUE Melinda#437Female 40-490:20:32"7.5 " 1227
CHANDLER Mark#121Senior Male0:20:40"7.4 " 12351
DALLINGER Brian#718Male 50+0:20:42"7.4 " 12410
WALLACE Drew#729Male 40-490:20:46"7.4 " 12518
MC DONALD Kellie#392Senior Female0:20:49"7.3 " 12623
MERRICK Jenny#323Female 50+0:20:50"7.3 " 1274
CAIN Greg#777Male 50+0:20:53"7.3 " 12811
BORN Tim#633Male 40-490:21:03"7.3 " 12919
NEWMAN Nadine#467Female 40-490:21:03"7.3 " 1308
WRIGHT Phil#739Male 50+0:21:05"7.3 " 13112
CARR Vern#120Senior Male0:21:12"7.2 " 13252
PHILLIPS Matthew#150Senior Male0:21:17"7.2 " 13353
MATTHEWS Bob#680Male 50+0:21:21"7.2 " 13413
BREMNER James#92Senior Male0:21:31"7.1 " 13554
FITZGERALD Rick#660Male 50+0:21:32"7.1 " 13614
ARFI Daniel#189Senior Male0:21:33"7.1 " 13755
WARING Colin#645Male 40-490:21:36"7.1 " 13820
VAN DER HEYDEN Natalie#391Senior Female0:21:36"7.1 " 13924
WILLIAMS Phil#773Male 50+0:21:36"7.1 " 14015
EMMETT Niki#456Female 40-490:21:40"7.1 " 1419
LEECH David#83Senior Male0:21:48"7.0 " 14256
EGAN Holly#395Junior Female0:21:53"7.0 " 1438
BAYLIS Dannielle#442Female 40-490:21:54"7.0 " 14410
TOOHEY Lyn#326Female 50+0:22:02"6.9 " 1455
CARTER Dean#653Male 50+0:22:04"6.9 " 14616
WALDER Charles#646Male 40-490:22:07"6.9 " 14721
CAMENZULI Maria#406Female 40-490:22:13"6.9 " 14811
MITCHELL Adam#62Senior Male0:22:20"6.9 " 14957
HANSON Thomas#23Senior Male0:22:24"6.8 " 15058
EGAN Karen#394Female 40-490:22:24"6.8 " 15112
WOLF Peter#168Senior Male0:22:28"6.8 " 15259
READ Ken#695Male 40-490:22:29"6.8 " 15322
POLLARD-VIRTUE Caleb#716Junior Male0:22:57"6.7 " 1548
HOLLINS Jenny#314Female 40-490:22:57"6.7 " 15513
BLUNDY Rebecca#438Senior Female0:23:01"6.6 " 15625
VIRTUE Blade#715Junior Male0:23:11"6.6 " 1579
ADKINS Susan#304Female 40-490:23:15"6.6 " 15814
CUTHBERTSON Wynonna#469Senior Female0:23:20"6.6 " 15926
GOODE Tom#652Male 50+0:23:24"6.5 " 16017
WALKER Christine#396Female 50+0:23:39"6.5 " 1616
CURPHEY Jane#407Female 50+0:23:43"6.5 " 1627
DYNON Paul#634Male 40-490:23:49"6.4 " 16323
WILLIS Eddy#448Female 50+0:24:11"6.3 " 1648
CHASTON Peter#673Male 50+0:24:21"6.3 " 16518
KEWMING Robyn#459Female 50+0:25:22"6.0 " 1669
STALEY Ryan#66Senior Male0:25:28"6.0 " 16760
BROWN Rob#80Senior Male0:25:38"6.0 " 16861
SAUNDERS Daemon#210Senior Male0:25:44"5.9 " 16962
BOWKER Colin#775Male 40-490:25:47"5.9 " 17024
WIZENBEEK Miak#723Male 50+0:26:12"5.8 " 17119
CLEELAND Pip#307Female 40-490:26:29"5.8 " 17215
CHAMBERS Ron#663Male 50+0:27:20"5.6 " 17320
CLEELAND Mike#662Male 50+0:28:07"5.4 " 17421
THOMAS Julie#329Female 50+0:28:15"5.4 " 17510
O'DONOHUE Lesley#397Female 40-490:28:44"5.3 " 17616
LOEZ Bernard#656Male 50+0:29:09"5.2 " 17722
MOWLAM Fleur#356Senior Female0:29:12"5.2 " 17827
FRANSEN Robert#744Male 50+0:29:18"5.2 " 17923
HOSKING Craig#193Senior Male0:29:31"5.2 " 18063
DOWNWARD Dylan#692Junior Male0:31:43"4.8 " 18110
COLE Ian#733Male 50+0:31:51"4.8 " 18224
HORROCKS Mark#714Male 50+0:32:14"4.7 " 18325